sensor_id;sensor_type;location;lat;lon;timestamp;pressure;altitude;pressure_sealevel;temperature;humidity
40998;BME280;26740;45.944;12.480;2023-12-20T00:01:48;101319.03;;;-0.57;100.00
40998;BME280;26740;45.944;12.480;2023-12-20T00:04:14;101315.59;;;-0.67;100.00
40998;BME280;26740;45.944;12.480;2023-12-20T00:06:40;101315.44;;;-0.74;100.00
40998;BME280;26740;45.944;12.480;2023-12-20T00:09:05;101311.00;;;-0.75;100.00
40998;BME280;26740;45.944;12.480;2023-12-20T00:11:31;101309.63;;;-0.79;100.00
40998;BME280;26740;45.944;12.480;2023-12-20T00:13:56;101308.06;;;-0.90;100.00
40998;BME280;26740;45.944;12.480;2023-12-20T00:16:22;101300.22;;;-0.85;100.00
40998;BME280;26740;45.944;12.480;2023-12-20T00:18:47;101295.81;;;-0.86;100.00
40998;BME280;26740;45.944;12.480;2023-12-20T00:21:13;101290.00;;;-0.91;100.00
40998;BME280;26740;45.944;12.480;2023-12-20T00:23:39;101285.75;;;-0.85;100.00
40998;BME280;26740;45.944;12.480;2023-12-20T00:26:04;101285.75;;;-0.85;100.00
40998;BME280;26740;45.944;12.480;2023-12-20T00:28:30;101277.72;;;-0.87;100.00
40998;BME280;26740;45.944;12.480;2023-12-20T00:30:55;101278.94;;;-0.89;100.00
40998;BME280;26740;45.944;12.480;2023-12-20T00:33:21;101269.19;;;-0.92;100.00
40998;BME280;26740;45.944;12.480;2023-12-20T00:35:46;101263.06;;;-0.94;100.00
40998;BME280;26740;45.944;12.480;2023-12-20T00:38:12;101266.13;;;-0.97;100.00
40998;BME280;26740;45.944;12.480;2023-12-20T00:40:37;101258.66;;;-0.95;100.00
40998;BME280;26740;45.944;12.480;2023-12-20T00:43:03;101260.34;;;-0.94;100.00
40998;BME280;26740;45.944;12.480;2023-12-20T00:45:29;101254.88;;;-0.94;100.00
40998;BME280;26740;45.944;12.480;2023-12-20T00:47:54;101251.84;;;-0.91;100.00
40998;BME280;26740;45.944;12.480;2023-12-20T00:50:20;101248.44;;;-0.85;100.00
40998;BME280;26740;45.944;12.480;2023-12-20T00:52:47;101244.19;;;-0.87;100.00
40998;BME280;26740;45.944;12.480;2023-12-20T00:55:13;101246.53;;;-0.92;100.00
40998;BME280;26740;45.944;12.480;2023-12-20T00:57:39;101232.75;;;-0.91;100.00
40998;BME280;26740;45.944;12.480;2023-12-20T01:00:05;101232.44;;;-0.88;100.00
40998;BME280;26740;45.944;12.480;2023-12-20T01:02:31;101230.19;;;-0.92;100.00
40998;BME280;26740;45.944;12.480;2023-12-20T01:04:56;101221.66;;;-0.98;100.00
40998;BME280;26740;45.944;12.480;2023-12-20T01:07:22;101223.34;;;-1.05;100.00
40998;BME280;26740;45.944;12.480;2023-12-20T01:09:47;101225.41;;;-1.07;100.00
40998;BME280;26740;45.944;12.480;2023-12-20T01:12:13;101223.16;;;-1.11;100.00
40998;BME280;26740;45.944;12.480;2023-12-20T01:14:38;101226.25;;;-1.15;100.00
40998;BME280;26740;45.944;12.480;2023-12-20T01:17:05;101228.63;;;-1.11;100.00
40998;BME280;26740;45.944;12.480;2023-12-20T01:19:30;101231.16;;;-1.10;100.00
40998;BME280;26740;45.944;12.480;2023-12-20T01:21:56;101228.63;;;-1.11;100.00
40998;BME280;26740;45.944;12.480;2023-12-20T01:24:22;101228.31;;;-1.00;100.00
40998;BME280;26740;45.944;12.480;2023-12-20T01:26:47;101231.38;;;-0.87;100.00
40998;BME280;26740;45.944;12.480;2023-12-20T01:29:13;101233.97;;;-0.77;100.00
40998;BME280;26740;45.944;12.480;2023-12-20T01:31:39;101237.00;;;-0.88;100.00
40998;BME280;26740;45.944;12.480;2023-12-20T01:34:06;101243.34;;;-0.88;100.00
40998;BME280;26740;45.944;12.480;2023-12-20T01:36:31;101233.75;;;-1.00;100.00
40998;BME280;26740;45.944;12.480;2023-12-20T01:38:57;101232.38;;;-1.04;100.00
40998;BME280;26740;45.944;12.480;2023-12-20T01:41:23;101226.59;;;-1.01;100.00
40998;BME280;26740;45.944;12.480;2023-12-20T01:43:48;101225.41;;;-1.07;100.00
40998;BME280;26740;45.944;12.480;2023-12-20T01:46:14;101223.69;;;-1.16;100.00
40998;BME280;26740;45.944;12.480;2023-12-20T01:48:41;101209.19;;;-1.17;100.00
40998;BME280;26740;45.944;12.480;2023-12-20T01:51:06;101212.25;;;-1.20;100.00
40998;BME280;26740;45.944;12.480;2023-12-20T01:53:33;101209.53;;;-1.20;100.00
40998;BME280;26740;45.944;12.480;2023-12-20T01:55:59;101205.94;;;-1.20;100.00
40998;BME280;26740;45.944;12.480;2023-12-20T01:58:26;101196.56;;;-1.26;100.00
40998;BME280;26740;45.944;12.480;2023-12-20T02:00:52;101193.03;;;-1.18;100.00
40998;BME280;26740;45.944;12.480;2023-12-20T02:03:18;101186.88;;;-1.20;100.00
40998;BME280;26740;45.944;12.480;2023-12-20T02:05:44;101185.84;;;-1.19;100.00
40998;BME280;26740;45.944;12.480;2023-12-20T02:08:11;101190.94;;;-1.24;100.00
40998;BME280;26740;45.944;12.480;2023-12-20T02:10:36;101183.97;;;-1.27;100.00
40998;BME280;26740;45.944;12.480;2023-12-20T02:13:02;101182.63;;;-1.23;100.00
40998;BME280;26740;45.944;12.480;2023-12-20T02:15:29;101174.44;;;-1.23;100.00
40998;BME280;26740;45.944;12.480;2023-12-20T02:17:55;101173.09;;;-1.27;100.00
40998;BME280;26740;45.944;12.480;2023-12-20T02:20:20;101169.66;;;-1.29;100.00
40998;BME280;26740;45.944;12.480;2023-12-20T02:22:46;101168.97;;;-1.31;100.00
40998;BME280;26740;45.944;12.480;2023-12-20T02:25:11;101166.75;;;-1.27;100.00
40998;BME280;26740;45.944;12.480;2023-12-20T02:27:37;101171.69;;;-1.31;100.00
40998;BME280;26740;45.944;12.480;2023-12-20T02:30:03;101168.13;;;-1.31;100.00
40998;BME280;26740;45.944;12.480;2023-12-20T02:32:28;101164.69;;;-1.42;100.00
40998;BME280;26740;45.944;12.480;2023-12-20T02:34:55;101156.03;;;-1.37;100.00
40998;BME280;26740;45.944;12.480;2023-12-20T02:37:21;101153.81;;;-1.34;100.00
40998;BME280;26740;45.944;12.480;2023-12-20T02:39:46;101162.66;;;-1.40;100.00
40998;BME280;26740;45.944;12.480;2023-12-20T02:42:12;101154.63;;;-1.41;100.00
40998;BME280;26740;45.944;12.480;2023-12-20T02:44:37;101158.75;;;-1.29;100.00
40998;BME280;26740;45.944;12.480;2023-12-20T02:47:03;101165.88;;;-1.36;100.00
40998;BME280;26740;45.944;12.480;2023-12-20T02:49:29;101163.69;;;-1.41;100.00
40998;BME280;26740;45.944;12.480;2023-12-20T02:51:54;101155.19;;;-1.38;100.00
40998;BME280;26740;45.944;12.480;2023-12-20T02:54:20;101157.38;;;-1.33;100.00
40998;BME280;26740;45.944;12.480;2023-12-20T02:56:45;101149.44;;;-1.18;100.00
40998;BME280;26740;45.944;12.480;2023-12-20T02:59:11;101153.00;;;-1.18;100.00
40998;BME280;26740;45.944;12.480;2023-12-20T03:01:45;101150.13;;;-1.16;100.00
40998;BME280;26740;45.944;12.480;2023-12-20T03:04:11;101144.50;;;-1.15;100.00
40998;BME280;26740;45.944;12.480;2023-12-20T03:06:38;101142.13;;;-1.09;100.00
40998;BME280;26740;45.944;12.480;2023-12-20T03:09:03;101139.03;;;-1.06;100.00
40998;BME280;26740;45.944;12.480;2023-12-20T03:11:29;101127.63;;;-1.02;100.00
40998;BME280;26740;45.944;12.480;2023-12-20T03:13:55;101129.69;;;-1.04;100.00
40998;BME280;26740;45.944;12.480;2023-12-20T03:16:21;101126.44;;;-1.07;100.00
40998;BME280;26740;45.944;12.480;2023-12-20T03:18:47;101125.41;;;-1.06;100.00
40998;BME280;26740;45.944;12.480;2023-12-20T03:21:12;101119.78;;;-1.05;100.00
40998;BME280;26740;45.944;12.480;2023-12-20T03:23:38;101111.44;;;-1.03;100.00
40998;BME280;26740;45.944;12.480;2023-12-20T03:26:07;101113.84;;;-1.00;100.00
40998;BME280;26740;45.944;12.480;2023-12-20T03:28:33;101110.06;;;-0.99;100.00
40998;BME280;26740;45.944;12.480;2023-12-20T03:30:58;101103.44;;;-0.97;100.00
40998;BME280;26740;45.944;12.480;2023-12-20T03:33:24;101108.91;;;-0.97;100.00
40998;BME280;26740;45.944;12.480;2023-12-20T03:35:50;101103.94;;;-0.85;100.00
40998;BME280;26740;45.944;12.480;2023-12-20T03:38:15;101102.59;;;-0.81;100.00
40998;BME280;26740;45.944;12.480;2023-12-20T03:40:41;101089.28;;;-0.92;100.00
40998;BME280;26740;45.944;12.480;2023-12-20T03:43:06;101085.88;;;-0.94;100.00
40998;BME280;26740;45.944;12.480;2023-12-20T03:45:33;101085.38;;;-0.98;100.00
40998;BME280;26740;45.944;12.480;2023-12-20T03:47:59;101090.50;;;-1.11;100.00
40998;BME280;26740;45.944;12.480;2023-12-20T03:50:24;101086.06;;;-1.12;100.00
40998;BME280;26740;45.944;12.480;2023-12-20T03:52:50;101078.91;;;-1.13;100.00
40998;BME280;26740;45.944;12.480;2023-12-20T03:55:16;101077.41;;;-1.07;100.00
40998;BME280;26740;45.944;12.480;2023-12-20T03:57:41;101082.69;;;-1.06;100.00
40998;BME280;26740;45.944;12.480;2023-12-20T04:00:07;101078.06;;;-1.22;100.00
40998;BME280;26740;45.944;12.480;2023-12-20T04:02:41;101081.47;;;-1.20;100.00
40998;BME280;26740;45.944;12.480;2023-12-20T04:05:08;101079.75;;;-1.21;100.00
40998;BME280;26740;45.944;12.480;2023-12-20T04:07:34;101073.81;;;-1.24;100.00
40998;BME280;26740;45.944;12.480;2023-12-20T04:10:00;101073.13;;;-1.26;100.00
40998;BME280;26740;45.944;12.480;2023-12-20T04:12:27;101068.19;;;-1.23;100.00
40998;BME280;26740;45.944;12.480;2023-12-20T04:14:52;101068.69;;;-1.27;100.00
40998;BME280;26740;45.944;12.480;2023-12-20T04:17:18;101056.75;;;-1.35;100.00
40998;BME280;26740;45.944;12.480;2023-12-20T04:19:43;101048.94;;;-1.21;100.00
40998;BME280;26740;45.944;12.480;2023-12-20T04:22:09;101054.91;;;-1.09;100.00
40998;BME280;26740;45.944;12.480;2023-12-20T04:24:34;101048.75;;;-1.03;100.00
40998;BME280;26740;45.944;12.480;2023-12-20T04:27:00;101044.84;;;-1.01;100.00
40998;BME280;26740;45.944;12.480;2023-12-20T04:29:26;101060.84;;;-0.98;100.00
40998;BME280;26740;45.944;12.480;2023-12-20T04:31:52;101052.84;;;-0.99;100.00
40998;BME280;26740;45.944;12.480;2023-12-20T04:34:17;101054.06;;;-0.93;100.00
40998;BME280;26740;45.944;12.480;2023-12-20T04:36:43;101053.19;;;-0.86;100.00
40998;BME280;26740;45.944;12.480;2023-12-20T04:39:10;101046.69;;;-0.85;100.00
40998;BME280;26740;45.944;12.480;2023-12-20T04:41:35;101031.38;;;-0.78;100.00
40998;BME280;26740;45.944;12.480;2023-12-20T04:44:01;101028.81;;;-0.79;100.00
40998;BME280;26740;45.944;12.480;2023-12-20T04:46:27;101021.97;;;-0.67;100.00
40998;BME280;26740;45.944;12.480;2023-12-20T04:48:52;101009.00;;;-0.65;100.00
40998;BME280;26740;45.944;12.480;2023-12-20T04:51:18;100997.88;;;-0.55;100.00
40998;BME280;26740;45.944;12.480;2023-12-20T04:53:44;101000.06;;;-0.42;100.00
40998;BME280;26740;45.944;12.480;2023-12-20T04:56:09;100995.03;;;-0.30;100.00
40998;BME280;26740;45.944;12.480;2023-12-20T04:58:35;100992.28;;;-0.22;100.00
40998;BME280;26740;45.944;12.480;2023-12-20T05:01:01;100995.34;;;-0.17;100.00
40998;BME280;26740;45.944;12.480;2023-12-20T05:03:27;100997.03;;;-0.16;100.00
40998;BME280;26740;45.944;12.480;2023-12-20T05:05:52;101006.28;;;-0.25;100.00
40998;BME280;26740;45.944;12.480;2023-12-20T05:08:18;100999.13;;;-0.26;100.00
40998;BME280;26740;45.944;12.480;2023-12-20T05:10:43;101002.88;;;-0.27;100.00
40998;BME280;26740;45.944;12.480;2023-12-20T05:13:09;101001.16;;;-0.20;100.00
40998;BME280;26740;45.944;12.480;2023-12-20T05:15:35;101009.06;;;-0.02;100.00
40998;BME280;26740;45.944;12.480;2023-12-20T05:18:00;101010.91;;;0.06;100.00
40998;BME280;26740;45.944;12.480;2023-12-20T05:20:26;101019.41;;;0.11;100.00
40998;BME280;26740;45.944;12.480;2023-12-20T05:22:51;101016.94;;;0.24;100.00
40998;BME280;26740;45.944;12.480;2023-12-20T05:25:17;101017.34;;;0.13;100.00
40998;BME280;26740;45.944;12.480;2023-12-20T05:27:42;101011.47;;;0.24;100.00
40998;BME280;26740;45.944;12.480;2023-12-20T05:30:08;101011.78;;;0.29;100.00
40998;BME280;26740;45.944;12.480;2023-12-20T05:32:34;101005.88;;;0.17;100.00
40998;BME280;26740;45.944;12.480;2023-12-20T05:34:59;101007.44;;;0.12;100.00
40998;BME280;26740;45.944;12.480;2023-12-20T05:37:25;100996.84;;;0.17;100.00
40998;BME280;26740;45.944;12.480;2023-12-20T05:39:50;100986.22;;;0.22;100.00
40998;BME280;26740;45.944;12.480;2023-12-20T05:42:16;100986.28;;;0.14;100.00
40998;BME280;26740;45.944;12.480;2023-12-20T05:44:41;100997.50;;;0.19;100.00
40998;BME280;26740;45.944;12.480;2023-12-20T05:47:07;101008.44;;;0.19;100.00
40998;BME280;26740;45.944;12.480;2023-12-20T05:49:33;100996.94;;;0.32;100.00
40998;BME280;26740;45.944;12.480;2023-12-20T05:51:58;100997.56;;;0.11;100.00
40998;BME280;26740;45.944;12.480;2023-12-20T05:54:24;101002.66;;;0.14;100.00
40998;BME280;26740;45.944;12.480;2023-12-20T05:56:49;100994.09;;;0.17;100.00
40998;BME280;26740;45.944;12.480;2023-12-20T05:59:16;101000.78;;;0.14;100.00
40998;BME280;26740;45.944;12.480;2023-12-20T06:01:41;100992.44;;;0.16;100.00
40998;BME280;26740;45.944;12.480;2023-12-20T06:04:07;100998.88;;;0.23;100.00
40998;BME280;26740;45.944;12.480;2023-12-20T06:06:32;100994.59;;;0.21;100.00
40998;BME280;26740;45.944;12.480;2023-12-20T06:08:58;101010.97;;;0.21;100.00
40998;BME280;26740;45.944;12.480;2023-12-20T06:11:23;101002.25;;;0.25;100.00
40998;BME280;26740;45.944;12.480;2023-12-20T06:13:49;101000.00;;;0.29;100.00
40998;BME280;26740;45.944;12.480;2023-12-20T06:16:18;100991.56;;;0.38;100.00
40998;BME280;26740;45.944;12.480;2023-12-20T06:18:44;100991.03;;;0.43;100.00
40998;BME280;26740;45.944;12.480;2023-12-20T06:21:09;100986.03;;;0.47;100.00
40998;BME280;26740;45.944;12.480;2023-12-20T06:23:38;100978.16;;;0.52;100.00
40998;BME280;26740;45.944;12.480;2023-12-20T06:26:04;100980.72;;;0.53;100.00
40998;BME280;26740;45.944;12.480;2023-12-20T06:28:29;100980.81;;;0.60;100.00
40998;BME280;26740;45.944;12.480;2023-12-20T06:30:55;100978.75;;;0.62;100.00
40998;BME280;26740;45.944;12.480;2023-12-20T06:33:22;100976.03;;;0.62;100.00
40998;BME280;26740;45.944;12.480;2023-12-20T06:35:48;100970.41;;;0.79;100.00
40998;BME280;26740;45.944;12.480;2023-12-20T06:38:14;100971.06;;;0.81;100.00
40998;BME280;26740;45.944;12.480;2023-12-20T06:40:39;100968.50;;;0.79;100.00
40998;BME280;26740;45.944;12.480;2023-12-20T06:43:05;100982.09;;;0.87;100.00
40998;BME280;26740;45.944;12.480;2023-12-20T06:45:32;100977.31;;;0.89;100.00
40998;BME280;26740;45.944;12.480;2023-12-20T06:47:57;100978.72;;;0.85;100.00
40998;BME280;26740;45.944;12.480;2023-12-20T06:50:23;100978.44;;;0.95;100.00
40998;BME280;26740;45.944;12.480;2023-12-20T06:52:49;100990.31;;;1.02;100.00
40998;BME280;26740;45.944;12.480;2023-12-20T06:55:15;100987.88;;;1.07;100.00
40998;BME280;26740;45.944;12.480;2023-12-20T06:57:40;100991.00;;;1.19;100.00
40998;BME280;26740;45.944;12.480;2023-12-20T07:00:06;100988.56;;;1.24;100.00
40998;BME280;26740;45.944;12.480;2023-12-20T07:02:33;100992.53;;;1.51;100.00
40998;BME280;26740;45.944;12.480;2023-12-20T07:04:59;100999.88;;;1.81;100.00
40998;BME280;26740;45.944;12.480;2023-12-20T07:07:25;101000.69;;;1.96;100.00
40998;BME280;26740;45.944;12.480;2023-12-20T07:09:51;101007.13;;;2.25;100.00
40998;BME280;26740;45.944;12.480;2023-12-20T07:12:17;101006.28;;;2.68;100.00
40998;BME280;26740;45.944;12.480;2023-12-20T07:14:45;100996.69;;;2.78;100.00
40998;BME280;26740;45.944;12.480;2023-12-20T07:17:11;100988.16;;;2.67;100.00
40998;BME280;26740;45.944;12.480;2023-12-20T07:19:39;100983.19;;;3.05;100.00
40998;BME280;26740;45.944;12.480;2023-12-20T07:22:06;100989.88;;;3.59;100.00
40998;BME280;26740;45.944;12.480;2023-12-20T07:24:32;100994.81;;;3.07;100.00
40998;BME280;26740;45.944;12.480;2023-12-20T07:26:58;100988.84;;;3.03;100.00
40998;BME280;26740;45.944;12.480;2023-12-20T07:29:24;100991.31;;;2.92;100.00
40998;BME280;26740;45.944;12.480;2023-12-20T07:31:50;100995.00;;;2.77;100.00
40998;BME280;26740;45.944;12.480;2023-12-20T07:34:17;100989.19;;;2.65;100.00
40998;BME280;26740;45.944;12.480;2023-12-20T07:36:43;100999.81;;;2.54;100.00
40998;BME280;26740;45.944;12.480;2023-12-20T07:39:09;101000.69;;;2.54;100.00
40998;BME280;26740;45.944;12.480;2023-12-20T07:41:35;101001.00;;;2.44;100.00
40998;BME280;26740;45.944;12.480;2023-12-20T07:44:01;101007.78;;;2.49;100.00
40998;BME280;26740;45.944;12.480;2023-12-20T07:46:26;101002.50;;;2.47;100.00
40998;BME280;26740;45.944;12.480;2023-12-20T07:48:52;101006.03;;;2.62;100.00
40998;BME280;26740;45.944;12.480;2023-12-20T07:51:17;101000.88;;;2.74;100.00
40998;BME280;26740;45.944;12.480;2023-12-20T07:53:43;101003.81;;;2.73;100.00
40998;BME280;26740;45.944;12.480;2023-12-20T07:56:16;101024.56;;;2.82;100.00
40998;BME280;26740;45.944;12.480;2023-12-20T07:58:42;101035.13;;;2.85;100.00
40998;BME280;26740;45.944;12.480;2023-12-20T08:01:08;101024.03;;;2.93;100.00
40998;BME280;26740;45.944;12.480;2023-12-20T08:03:34;101024.81;;;2.87;100.00
40998;BME280;26740;45.944;12.480;2023-12-20T08:05:59;101030.69;;;2.84;100.00
40998;BME280;26740;45.944;12.480;2023-12-20T08:08:25;101032.41;;;2.85;100.00
40998;BME280;26740;45.944;12.480;2023-12-20T08:10:51;101024.81;;;2.87;100.00
40998;BME280;26740;45.944;12.480;2023-12-20T08:13:17;101030.03;;;2.82;100.00
40998;BME280;26740;45.944;12.480;2023-12-20T08:15:42;101023.59;;;2.90;100.00
40998;BME280;26740;45.944;12.480;2023-12-20T08:18:08;101033.84;;;2.81;100.00
40998;BME280;26740;45.944;12.480;2023-12-20T08:20:33;101032.56;;;3.05;100.00
40998;BME280;26740;45.944;12.480;2023-12-20T08:22:59;101047.22;;;3.19;100.00
40998;BME280;26740;45.944;12.480;2023-12-20T08:25:24;101040.19;;;3.10;100.00
40998;BME280;26740;45.944;12.480;2023-12-20T08:27:50;101038.34;;;3.17;100.00
40998;BME280;26740;45.944;12.480;2023-12-20T08:30:16;101044.69;;;3.17;100.00
40998;BME280;26740;45.944;12.480;2023-12-20T08:32:46;101035.81;;;3.15;100.00
40998;BME280;26740;45.944;12.480;2023-12-20T08:35:11;101037.41;;;3.31;100.00
40998;BME280;26740;45.944;12.480;2023-12-20T08:37:37;101038.50;;;3.37;100.00
40998;BME280;26740;45.944;12.480;2023-12-20T08:40:02;101044.09;;;3.50;100.00
40998;BME280;26740;45.944;12.480;2023-12-20T08:42:28;101047.69;;;3.51;100.00
40998;BME280;26740;45.944;12.480;2023-12-20T08:44:57;101038.06;;;3.33;100.00
40998;BME280;26740;45.944;12.480;2023-12-20T08:47:24;101025.44;;;3.39;100.00
40998;BME280;26740;45.944;12.480;2023-12-20T08:49:49;101033.44;;;3.40;100.00
40998;BME280;26740;45.944;12.480;2023-12-20T08:52:15;101044.97;;;3.57;100.00
40998;BME280;26740;45.944;12.480;2023-12-20T08:54:41;101042.03;;;3.94;100.00
40998;BME280;26740;45.944;12.480;2023-12-20T08:57:06;101038.78;;;3.84;100.00
40998;BME280;26740;45.944;12.480;2023-12-20T08:59:32;101038.19;;;3.95;100.00
40998;BME280;26740;45.944;12.480;2023-12-20T09:01:58;101043.06;;;3.93;100.00
40998;BME280;26740;45.944;12.480;2023-12-20T09:04:24;101043.59;;;4.16;100.00
40998;BME280;26740;45.944;12.480;2023-12-20T09:06:49;101028.66;;;4.46;100.00
40998;BME280;26740;45.944;12.480;2023-12-20T09:09:15;101035.28;;;4.65;100.00
40998;BME280;26740;45.944;12.480;2023-12-20T09:11:40;101037.19;;;4.84;100.00
40998;BME280;26740;45.944;12.480;2023-12-20T09:14:07;101031.28;;;5.01;100.00
40998;BME280;26740;45.944;12.480;2023-12-20T09:16:32;101018.81;;;4.98;100.00
40998;BME280;26740;45.944;12.480;2023-12-20T09:18:58;101013.69;;;4.88;100.00
40998;BME280;26740;45.944;12.480;2023-12-20T09:21:24;101007.78;;;5.11;100.00
40998;BME280;26740;45.944;12.480;2023-12-20T09:23:49;101001.44;;;5.24;100.00
40998;BME280;26740;45.944;12.480;2023-12-20T09:26:15;101010.28;;;5.40;100.00
40998;BME280;26740;45.944;12.480;2023-12-20T09:28:40;101010.06;;;5.48;100.00
40998;BME280;26740;45.944;12.480;2023-12-20T09:31:06;101009.44;;;5.46;100.00
40998;BME280;26740;45.944;12.480;2023-12-20T09:33:33;101005.84;;;5.45;100.00
40998;BME280;26740;45.944;12.480;2023-12-20T09:35:59;101004.72;;;5.66;100.00
40998;BME280;26740;45.944;12.480;2023-12-20T09:38:25;100995.59;;;5.66;100.00
40998;BME280;26740;45.944;12.480;2023-12-20T09:40:50;100996.31;;;5.35;100.00
40998;BME280;26740;45.944;12.480;2023-12-20T09:43:19;101007.25;;;5.75;100.00
40998;BME280;26740;45.944;12.480;2023-12-20T09:45:46;101006.75;;;6.04;100.00
40998;BME280;26740;45.944;12.480;2023-12-20T09:48:13;100994.28;;;5.82;100.00
40998;BME280;26740;45.944;12.480;2023-12-20T09:50:40;100982.94;;;5.58;100.00
40998;BME280;26740;45.944;12.480;2023-12-20T09:53:08;100979.78;;;5.48;100.00
40998;BME280;26740;45.944;12.480;2023-12-20T09:55:36;100983.06;;;5.77;100.00
40998;BME280;26740;45.944;12.480;2023-12-20T09:58:02;100983.47;;;5.87;100.00
40998;BME280;26740;45.944;12.480;2023-12-20T10:00:28;100977.41;;;6.17;100.00
40998;BME280;26740;45.944;12.480;2023-12-20T10:03:00;100983.03;;;6.35;100.00
40998;BME280;26740;45.944;12.480;2023-12-20T10:05:31;100979.72;;;6.58;100.00
40998;BME280;26740;45.944;12.480;2023-12-20T10:07:57;100970.75;;;6.63;100.00
40998;BME280;26740;45.944;12.480;2023-12-20T10:10:23;100971.78;;;6.69;100.00
40998;BME280;26740;45.944;12.480;2023-12-20T14:13:29;100822.84;;;9.21;100.00
40998;BME280;26740;45.944;12.480;2023-12-20T14:15:54;100821.41;;;9.19;100.00
40998;BME280;26740;45.944;12.480;2023-12-20T14:18:20;100818.25;;;9.27;100.00
40998;BME280;26740;45.944;12.480;2023-12-20T14:20:48;100819.56;;;9.24;100.00
40998;BME280;26740;45.944;12.480;2023-12-20T14:23:13;100817.56;;;9.20;100.00
40998;BME280;26740;45.944;12.480;2023-12-20T14:25:42;100828.19;;;9.11;100.00
40998;BME280;26740;45.944;12.480;2023-12-20T14:28:07;100836.84;;;9.15;100.00
40998;BME280;26740;45.944;12.480;2023-12-20T14:30:33;100830.59;;;9.07;100.00
40998;BME280;26740;45.944;12.480;2023-12-20T14:33:00;100832.03;;;8.98;100.00
40998;BME280;26740;45.944;12.480;2023-12-20T14:35:25;100832.16;;;8.91;100.00
40998;BME280;26740;45.944;12.480;2023-12-20T14:37:51;100828.56;;;8.79;100.00
40998;BME280;26740;45.944;12.480;2023-12-20T14:40:16;100824.72;;;8.68;100.00
40998;BME280;26740;45.944;12.480;2023-12-20T14:42:42;100826.38;;;8.58;100.00
40998;BME280;26740;45.944;12.480;2023-12-20T14:45:09;100824.84;;;8.62;100.00
40998;BME280;26740;45.944;12.480;2023-12-20T14:47:34;100826.16;;;8.47;100.00
40998;BME280;26740;45.944;12.480;2023-12-20T14:50:02;100830.00;;;8.46;100.00
40998;BME280;26740;45.944;12.480;2023-12-20T14:52:29;100829.16;;;8.46;100.00
40998;BME280;26740;45.944;12.480;2023-12-20T14:54:54;100823.63;;;8.46;100.00
40998;BME280;26740;45.944;12.480;2023-12-20T14:57:20;100818.16;;;8.39;100.00
40998;BME280;26740;45.944;12.480;2023-12-20T14:59:45;100824.03;;;8.31;100.00
40998;BME280;26740;45.944;12.480;2023-12-20T15:02:11;100823.31;;;8.24;100.00
40998;BME280;26740;45.944;12.480;2023-12-20T15:04:36;100816.34;;;8.21;100.00
40998;BME280;26740;45.944;12.480;2023-12-20T15:07:02;100824.50;;;8.16;100.00
40998;BME280;26740;45.944;12.480;2023-12-20T15:09:30;100825.78;;;8.02;100.00
40998;BME280;26740;45.944;12.480;2023-12-20T15:11:56;100827.06;;;7.87;100.00
40998;BME280;26740;45.944;12.480;2023-12-20T15:14:21;100841.38;;;7.66;100.00
40998;BME280;26740;45.944;12.480;2023-12-20T15:16:47;100834.78;;;7.36;100.00
40998;BME280;26740;45.944;12.480;2023-12-20T15:19:13;100829.00;;;7.19;100.00
40998;BME280;26740;45.944;12.480;2023-12-20T15:21:39;100833.16;;;7.10;100.00
40998;BME280;26740;45.944;12.480;2023-12-20T15:24:08;100839.59;;;7.04;100.00
40998;BME280;26740;45.944;12.480;2023-12-20T15:26:46;100839.38;;;7.06;100.00
40998;BME280;26740;45.944;12.480;2023-12-20T15:29:12;100844.22;;;7.10;100.00
40998;BME280;26740;45.944;12.480;2023-12-20T15:31:46;100836.06;;;6.97;100.00
40998;BME280;26740;45.944;12.480;2023-12-20T15:34:12;100829.16;;;6.69;100.00
40998;BME280;26740;45.944;12.480;2023-12-20T15:36:38;100827.03;;;6.46;100.00
40998;BME280;26740;45.944;12.480;2023-12-20T15:39:05;100826.53;;;6.31;100.00
40998;BME280;26740;45.944;12.480;2023-12-20T15:41:30;100836.75;;;6.23;100.00
40998;BME280;26740;45.944;12.480;2023-12-20T15:43:56;100831.56;;;6.08;100.00
40998;BME280;26740;45.944;12.480;2023-12-20T15:46:22;100837.84;;;5.84;100.00
40998;BME280;26740;45.944;12.480;2023-12-20T15:48:48;100834.38;;;5.63;100.00
40998;BME280;26740;45.944;12.480;2023-12-20T15:51:14;100837.19;;;5.50;100.00
40998;BME280;26740;45.944;12.480;2023-12-20T15:53:40;100841.88;;;5.43;100.00
40998;BME280;26740;45.944;12.480;2023-12-20T15:56:06;100848.50;;;5.35;100.00
40998;BME280;26740;45.944;12.480;2023-12-20T15:58:32;100845.97;;;5.27;100.00
40998;BME280;26740;45.944;12.480;2023-12-20T16:00:58;100851.94;;;5.17;100.00
40998;BME280;26740;45.944;12.480;2023-12-20T16:03:24;100852.59;;;5.12;100.00
40998;BME280;26740;45.944;12.480;2023-12-20T16:05:49;100843.28;;;5.13;100.00
40998;BME280;26740;45.944;12.480;2023-12-20T16:08:15;100853.63;;;5.11;100.00
40998;BME280;26740;45.944;12.480;2023-12-20T16:10:40;100858.94;;;5.06;100.00
40998;BME280;26740;45.944;12.480;2023-12-20T16:13:06;100858.31;;;4.98;100.00
40998;BME280;26740;45.944;12.480;2023-12-20T16:15:33;100862.97;;;5.04;100.00
40998;BME280;26740;45.944;12.480;2023-12-20T16:17:58;100861.53;;;5.01;100.00
40998;BME280;26740;45.944;12.480;2023-12-20T16:20:24;100871.47;;;4.96;100.00
40998;BME280;26740;45.944;12.480;2023-12-20T16:22:49;100874.00;;;4.97;100.00
40998;BME280;26740;45.944;12.480;2023-12-20T16:25:16;100879.28;;;4.99;100.00
40998;BME280;26740;45.944;12.480;2023-12-20T16:27:41;100879.09;;;4.93;100.00
40998;BME280;26740;45.944;12.480;2023-12-20T16:30:08;100882.09;;;4.85;100.00